createdAt,value
2022-08-30T00:00:44.405Z,20.01
2022-08-30T00:03:18.295Z,20.01
2022-08-30T00:05:52.543Z,19.97
2022-08-30T00:08:27.724Z,19.95
2022-08-30T00:11:01.760Z,19.97
2022-08-30T00:13:36.757Z,19.97
2022-08-30T00:16:10.792Z,19.96
2022-08-30T00:18:44.460Z,19.91
2022-08-30T00:21:17.978Z,19.87
2022-08-30T00:23:51.199Z,19.85
2022-08-30T00:26:24.663Z,19.84
2022-08-30T00:28:59.056Z,19.81
2022-08-30T00:31:32.642Z,19.78
2022-08-30T00:34:06.752Z,19.74
2022-08-30T00:36:39.956Z,19.72
2022-08-30T00:39:13.588Z,19.72
2022-08-30T00:41:46.936Z,19.69
2022-08-30T00:44:20.226Z,19.70
2022-08-30T00:46:53.464Z,19.64
2022-08-30T00:49:27.404Z,19.60
2022-08-30T00:52:01.805Z,19.53
2022-08-30T00:54:38.195Z,19.51
2022-08-30T00:57:14.335Z,19.45
2022-08-30T00:59:50.380Z,19.43
2022-08-30T01:02:26.770Z,19.39
2022-08-30T01:05:02.003Z,19.38
2022-08-30T01:07:35.566Z,19.35
2022-08-30T01:10:11.780Z,19.32
2022-08-30T01:12:46.619Z,19.31
2022-08-30T01:15:19.924Z,19.30
2022-08-30T01:17:54.495Z,19.29
2022-08-30T01:23:17.035Z,19.33
2022-08-30T01:25:52.466Z,19.19
2022-08-30T01:28:29.260Z,19.15
2022-08-30T01:31:02.693Z,19.14
2022-08-30T01:33:37.612Z,19.10
2022-08-30T01:36:14.373Z,19.04
2022-08-30T01:38:50.087Z,19.01
2022-08-30T01:41:26.078Z,19.03
2022-08-30T01:44:03.627Z,18.97
2022-08-30T01:46:39.706Z,18.95
2022-08-30T01:49:16.359Z,18.93
2022-08-30T01:51:49.654Z,18.90
2022-08-30T01:54:27.262Z,18.83
2022-08-30T01:57:00.299Z,18.82
2022-08-30T01:59:33.708Z,18.80
2022-08-30T02:02:07.730Z,18.74
2022-08-30T02:04:40.942Z,18.71
2022-08-30T02:07:14.234Z,18.67
2022-08-30T02:09:50.192Z,18.65
2022-08-30T02:12:24.967Z,18.61
2022-08-30T02:14:58.315Z,18.59
2022-08-30T02:17:33.263Z,18.57
2022-08-30T02:20:08.906Z,18.57
2022-08-30T02:22:47.577Z,18.50
2022-08-30T02:25:21.173Z,18.48
2022-08-30T02:27:52.655Z,18.47
2022-08-30T02:30:26.109Z,18.45
2022-08-30T02:32:59.383Z,18.44
2022-08-30T02:35:33.647Z,18.41
2022-08-30T02:38:07.180Z,18.38
2022-08-30T02:40:44.766Z,18.38
2022-08-30T02:43:18.547Z,18.36
2022-08-30T02:45:52.089Z,18.35
2022-08-30T02:48:25.657Z,18.33
2022-08-30T02:51:00.494Z,18.31
2022-08-30T02:53:34.075Z,18.29
2022-08-30T02:56:08.103Z,18.28
2022-08-30T02:58:42.943Z,18.28
2022-08-30T03:01:18.634Z,18.28
2022-08-30T03:03:52.166Z,18.28
2022-08-30T03:06:28.228Z,18.26
2022-08-30T03:09:01.831Z,18.27
2022-08-30T03:11:36.435Z,18.26
2022-08-30T03:14:09.776Z,18.29
2022-08-30T03:16:43.055Z,18.30
2022-08-30T03:19:16.349Z,18.29
2022-08-30T03:21:50.598Z,18.28
2022-08-30T03:24:24.154Z,18.31
2022-08-30T03:26:57.335Z,18.33
2022-08-30T03:29:31.781Z,18.37
2022-08-30T03:32:05.840Z,18.41
2022-08-30T03:34:39.972Z,18.46
2022-08-30T03:37:13.667Z,18.52
2022-08-30T03:39:47.266Z,18.60
2022-08-30T03:42:22.078Z,18.66
2022-08-30T03:44:57.080Z,18.68
2022-08-30T03:47:30.735Z,18.70
2022-08-30T03:50:05.209Z,18.75
2022-08-30T03:52:40.974Z,18.74
2022-08-30T03:55:15.422Z,18.74
2022-08-30T03:57:48.609Z,18.77
2022-08-30T04:00:24.307Z,18.82
2022-08-30T04:02:57.776Z,18.82
2022-08-30T04:05:35.141Z,18.86
2022-08-30T04:08:09.345Z,18.92
2022-08-30T04:10:42.536Z,18.91
2022-08-30T04:13:15.990Z,18.94
2022-08-30T04:15:49.396Z,18.93
2022-08-30T04:18:23.101Z,18.97
2022-08-30T04:20:56.288Z,19.06
2022-08-30T04:23:29.453Z,19.11
2022-08-30T04:26:02.673Z,19.20
2022-08-30T04:28:36.255Z,19.22
2022-08-30T04:31:13.419Z,19.27
2022-08-30T04:33:49.365Z,19.26
2022-08-30T04:36:27.141Z,19.33
2022-08-30T04:39:03.012Z,19.42
2022-08-30T04:41:40.788Z,19.54
2022-08-30T04:44:19.525Z,19.55
2022-08-30T04:46:52.219Z,19.60
2022-08-30T04:49:25.444Z,19.69
2022-08-30T04:51:59.380Z,19.72
2022-08-30T04:54:34.546Z,19.73
2022-08-30T04:57:09.934Z,19.78
2022-08-30T04:59:43.283Z,19.83
2022-08-30T05:02:16.554Z,19.90
2022-08-30T05:05:07.574Z,20.00
2022-08-30T05:07:41.613Z,20.02
2022-08-30T05:10:15.648Z,20.03
2022-08-30T05:12:49.099Z,20.06
2022-08-30T05:15:24.881Z,20.17
2022-08-30T05:18:01.072Z,20.24
2022-08-30T05:20:36.329Z,20.27
2022-08-30T05:23:12.287Z,20.37
2022-08-30T05:25:46.940Z,20.40
2022-08-30T05:28:24.238Z,20.47
2022-08-30T05:30:59.547Z,20.53
2022-08-30T05:33:38.821Z,20.59
2022-08-30T05:36:11.882Z,20.61
2022-08-30T05:38:47.853Z,20.69
2022-08-30T05:41:30.760Z,20.74
2022-08-30T05:44:06.433Z,20.78
2022-08-30T05:46:43.813Z,20.85
2022-08-30T05:49:37.858Z,20.97
2022-08-30T05:52:12.948Z,21.08
2022-08-30T05:54:46.699Z,21.18
2022-08-30T05:57:22.818Z,21.30
2022-08-30T05:59:56.159Z,21.32
2022-08-30T06:05:19.644Z,21.65
2022-08-30T06:07:53.170Z,21.59
2022-08-30T06:10:26.577Z,21.66
2022-08-30T06:13:01.882Z,21.80
2022-08-30T06:15:35.612Z,21.91
2022-08-30T06:18:09.141Z,21.97
2022-08-30T06:20:44.433Z,22.11
2022-08-30T06:23:18.691Z,22.25
2022-08-30T06:25:52.187Z,22.33
2022-08-30T06:28:25.438Z,22.44
2022-08-30T06:31:00.651Z,22.70
2022-08-30T06:33:33.992Z,23.15
2022-08-30T06:36:08.887Z,23.81
2022-08-30T06:38:43.109Z,24.94
2022-08-30T06:41:19.207Z,26.26
2022-08-30T06:43:52.904Z,27.75
2022-08-30T06:46:28.797Z,28.42
2022-08-30T06:49:03.269Z,28.67
2022-08-30T06:51:39.843Z,29.06
2022-08-30T06:54:15.156Z,29.76
2022-08-30T06:56:58.147Z,30.19
2022-08-30T06:59:23.899Z,30.83
2022-08-30T07:01:58.397Z,30.82
2022-08-30T07:04:31.750Z,31.04
2022-08-30T07:07:05.491Z,31.30
2022-08-30T07:09:41.709Z,31.24
2022-08-30T07:12:16.062Z,31.87
2022-08-30T07:14:49.966Z,32.31
2022-08-30T07:17:42.269Z,32.94
2022-08-30T07:20:18.674Z,33.59
2022-08-30T07:22:57.194Z,32.24
2022-08-30T07:25:30.806Z,30.85
2022-08-30T07:28:04.179Z,31.42
2022-08-30T07:30:38.576Z,32.72
2022-08-30T07:33:12.134Z,33.36
2022-08-30T07:35:45.509Z,33.83
2022-08-30T07:38:18.999Z,33.88
2022-08-30T07:40:53.134Z,33.84
2022-08-30T07:43:27.208Z,33.56
2022-08-30T07:46:05.457Z,33.01
2022-08-30T07:48:39.050Z,32.98
2022-08-30T07:51:18.357Z,33.21
2022-08-30T07:53:52.161Z,33.36
2022-08-30T07:56:26.478Z,33.90
2022-08-30T07:59:00.934Z,33.85
2022-08-30T08:04:16.541Z,34.47
2022-08-30T08:06:50.209Z,35.86
2022-08-30T08:09:23.549Z,35.87
2022-08-30T08:11:57.091Z,35.76
2022-08-30T08:14:30.418Z,35.96
2022-08-30T08:17:05.188Z,36.02
2022-08-30T08:19:38.374Z,36.06
2022-08-30T08:22:20.828Z,35.82
2022-08-30T08:24:47.544Z,36.62
2022-08-30T08:27:24.951Z,37.03
2022-08-30T08:29:58.522Z,37.12
2022-08-30T08:32:31.808Z,36.78
2022-08-30T08:35:05.423Z,36.68
2022-08-30T08:37:39.282Z,36.50
2022-08-30T08:40:17.111Z,35.81
2022-08-30T08:43:02.872Z,35.53
2022-08-30T08:45:49.452Z,35.72
2022-08-30T08:48:45.556Z,36.09
2022-08-30T08:51:24.784Z,36.84
2022-08-30T08:54:02.022Z,37.24
2022-08-30T08:56:38.014Z,38.17
2022-08-30T08:59:13.430Z,38.98
2022-08-30T09:01:48.063Z,39.13
2022-08-30T09:04:24.230Z,39.14
2022-08-30T09:07:01.121Z,39.49
2022-08-30T09:09:38.271Z,39.34
2022-08-30T09:12:15.281Z,39.96
2022-08-30T09:14:51.389Z,39.54
2022-08-30T09:17:26.506Z,39.08
2022-08-30T09:20:03.258Z,38.32
2022-08-30T09:22:39.574Z,38.01
2022-08-30T09:25:17.679Z,38.12
2022-08-30T09:27:54.108Z,39.61
2022-08-30T09:30:29.741Z,40.35
2022-08-30T09:33:05.453Z,40.53
2022-08-30T09:35:41.804Z,40.89
2022-08-30T09:38:20.249Z,41.15
2022-08-30T09:40:55.838Z,41.42
2022-08-30T09:43:31.263Z,40.84
2022-08-30T09:46:16.457Z,41.47
2022-08-30T09:48:48.872Z,42.20
2022-08-30T09:51:41.096Z,41.94
2022-08-30T09:54:21.158Z,41.97
2022-08-30T09:57:01.855Z,41.55
2022-08-30T09:59:46.796Z,40.98
2022-08-30T10:02:37.485Z,41.01
2022-08-30T10:05:14.186Z,42.00
2022-08-30T10:07:53.562Z,42.77
2022-08-30T10:10:30.949Z,42.67
2022-08-30T10:13:15.458Z,41.39
2022-08-30T10:15:51.984Z,40.68
2022-08-30T10:18:28.264Z,40.10
2022-08-30T10:21:06.667Z,39.95
2022-08-30T10:23:43.133Z,40.45
2022-08-30T10:26:19.430Z,41.24
2022-08-30T10:28:55.545Z,40.58
2022-08-30T10:31:31.737Z,39.28
2022-08-30T10:34:08.801Z,39.35
2022-08-30T10:36:46.314Z,38.95
2022-08-30T10:39:23.423Z,38.95
2022-08-30T10:42:06.095Z,39.33
2022-08-30T10:44:44.549Z,38.88
2022-08-30T10:47:24.190Z,37.35
2022-08-30T10:50:04.559Z,36.36
2022-08-30T10:52:42.599Z,37.45
2022-08-30T10:55:22.289Z,39.73
2022-08-30T10:57:57.209Z,41.13
2022-08-30T11:00:35.050Z,40.95
2022-08-30T11:03:30.984Z,39.91
2022-08-30T11:06:12.795Z,38.01
2022-08-30T11:09:04.802Z,38.74
2022-08-30T11:11:48.496Z,39.81
2022-08-30T11:14:25.680Z,40.74
2022-08-30T11:17:03.152Z,41.44
2022-08-30T11:19:41.349Z,42.28
2022-08-30T11:22:18.568Z,42.66
2022-08-30T11:25:11.451Z,42.93
2022-08-30T11:27:49.609Z,44.18
2022-08-30T11:30:50.610Z,45.23
2022-08-30T11:37:09.576Z,45.36
2022-08-30T11:40:04.673Z,44.62
2022-08-30T11:42:42.996Z,43.66
2022-08-30T11:45:48.132Z,42.21
2022-08-30T11:48:55.145Z,39.58
2022-08-30T11:54:46.484Z,35.64
2022-08-30T11:57:24.779Z,35.51
2022-08-30T12:00:04.282Z,35.84
2022-08-30T12:05:59.598Z,34.12
2022-08-30T12:09:08.277Z,33.49
2022-08-30T12:12:10.206Z,33.07
2022-08-30T12:14:55.885Z,33.18
2022-08-30T12:17:53.591Z,33.14
2022-08-30T12:20:30.471Z,33.04
2022-08-30T12:23:13.461Z,33.18
2022-08-30T12:25:46.976Z,33.09
2022-08-30T12:28:24.625Z,32.61
2022-08-30T12:30:59.580Z,32.02
2022-08-30T12:33:40.359Z,31.11
2022-08-30T12:36:17.154Z,31.21
2022-08-30T12:38:51.690Z,33.54
2022-08-30T12:41:28.331Z,36.03
2022-08-30T12:44:03.482Z,38.37
2022-08-30T12:46:38.813Z,39.80
2022-08-30T12:49:14.799Z,41.14
2022-08-30T12:51:49.531Z,42.21
2022-08-30T12:54:25.274Z,42.82
2022-08-30T12:59:59.661Z,42.92
2022-08-30T13:02:33.123Z,43.06
2022-08-30T13:05:06.980Z,43.50
2022-08-30T13:07:40.106Z,44.10
2022-08-30T13:10:20.054Z,44.52
2022-08-30T13:13:05.549Z,45.20
2022-08-30T13:15:43.751Z,45.46
2022-08-30T13:18:30.092Z,45.55
2022-08-30T13:21:25.613Z,45.78
2022-08-30T13:24:02.453Z,46.07
2022-08-30T13:26:37.795Z,46.00
2022-08-30T13:29:17.972Z,46.16
2022-08-30T13:31:51.561Z,46.45
2022-08-30T13:34:25.043Z,46.62
2022-08-30T13:37:00.028Z,46.47
2022-08-30T13:39:33.563Z,45.91
2022-08-30T13:48:43.483Z,43.68
2022-08-30T13:51:39.172Z,43.18
2022-08-30T13:54:12.608Z,42.81
2022-08-30T13:56:46.696Z,41.93
2022-08-30T13:59:22.295Z,40.42
2022-08-30T14:02:12.883Z,39.49
2022-08-30T14:04:32.974Z,39.36
2022-08-30T14:07:19.839Z,38.80
2022-08-30T14:09:42.075Z,38.99
2022-08-30T14:15:03.217Z,39.55
2022-08-30T14:17:38.651Z,39.75
2022-08-30T14:20:16.795Z,39.98
2022-08-30T14:22:49.339Z,40.08
2022-08-30T14:25:23.024Z,40.10
2022-08-30T14:27:58.502Z,39.86
2022-08-30T14:30:32.181Z,39.60
2022-08-30T14:33:06.961Z,39.38
2022-08-30T14:35:42.565Z,39.35
2022-08-30T14:38:16.413Z,39.25
2022-08-30T14:40:54.586Z,38.99
2022-08-30T14:43:32.319Z,38.73
2022-08-30T14:46:07.206Z,38.12
2022-08-30T14:48:43.063Z,37.72
2022-08-30T14:51:19.276Z,36.98
2022-08-30T14:57:19.398Z,35.59
2022-08-30T15:20:28.729Z,33.36
2022-08-30T15:23:22.975Z,32.68
2022-08-30T15:26:05.826Z,32.32
2022-08-30T15:29:12.327Z,32.02
2022-08-30T15:32:32.053Z,31.78
2022-08-30T15:35:52.959Z,31.54
2022-08-30T15:38:42.923Z,31.24
2022-08-30T15:41:23.495Z,30.97
2022-08-30T15:43:58.894Z,30.80
2022-08-30T15:46:34.876Z,30.68
2022-08-30T15:49:11.494Z,30.58
2022-08-30T15:51:47.532Z,30.49
2022-08-30T15:54:24.792Z,30.40
2022-08-30T15:57:01.702Z,30.15
2022-08-30T15:59:36.127Z,29.90
2022-08-30T16:02:11.467Z,29.56
2022-08-30T16:04:49.165Z,29.06
2022-08-30T16:07:25.451Z,28.79
2022-08-30T16:09:59.247Z,28.46
2022-08-30T16:12:37.215Z,28.16
2022-08-30T16:15:14.149Z,27.90
2022-08-30T16:18:05.072Z,27.95
2022-08-30T16:20:39.714Z,27.99
2022-08-30T16:23:13.432Z,27.95
2022-08-30T16:25:47.088Z,27.84
2022-08-30T16:28:20.814Z,27.72
2022-08-30T16:31:12.182Z,27.65
2022-08-30T16:33:41.157Z,27.55
2022-08-30T16:36:12.650Z,27.49
2022-08-30T16:38:46.299Z,27.47
2022-08-30T16:41:24.083Z,27.39
2022-08-30T16:44:03.644Z,27.32
2022-08-30T16:46:37.305Z,27.29
2022-08-30T16:49:14.769Z,27.32
2022-08-30T16:51:48.167Z,27.28
2022-08-30T16:54:24.297Z,27.17
2022-08-30T16:56:57.681Z,27.08
2022-08-30T16:59:31.059Z,26.98
2022-08-30T17:02:05.048Z,26.94
2022-08-30T17:04:38.517Z,26.94
2022-08-30T17:07:13.815Z,26.91
2022-08-30T17:09:47.842Z,26.85
2022-08-30T17:12:22.179Z,26.78
2022-08-30T17:14:58.101Z,26.67
2022-08-30T17:17:43.714Z,26.54
2022-08-30T17:20:24.071Z,26.43
2022-08-30T17:23:02.483Z,26.30
2022-08-30T17:25:41.183Z,26.22
2022-08-30T17:28:16.706Z,26.16
2022-08-30T17:30:57.362Z,26.18
2022-08-30T17:33:32.615Z,26.23
2022-08-30T17:36:09.004Z,26.31
2022-08-30T17:38:45.108Z,26.31
2022-08-30T17:41:20.900Z,26.29
2022-08-30T17:43:59.375Z,26.28
2022-08-30T17:46:47.182Z,26.32
2022-08-30T17:49:22.217Z,26.38
2022-08-30T17:51:57.156Z,26.41
2022-08-30T17:54:37.479Z,26.38
2022-08-30T17:57:13.224Z,26.38
2022-08-30T17:59:50.290Z,26.34
2022-08-30T18:02:30.263Z,26.26
2022-08-30T18:08:00.688Z,26.10
2022-08-30T18:10:34.707Z,26.08
2022-08-30T18:16:06.727Z,26.07
2022-08-30T18:18:52.629Z,26.05
2022-08-30T18:21:33.404Z,26.05
2022-08-30T18:24:08.636Z,25.97
2022-08-30T18:26:44.809Z,25.90
2022-08-30T18:29:26.296Z,25.86
2022-08-30T18:31:59.415Z,25.76
2022-08-30T18:34:38.245Z,25.64
2022-08-30T18:37:14.029Z,25.57
2022-08-30T18:39:48.478Z,25.40
2022-08-30T18:42:23.113Z,25.29
2022-08-30T18:44:56.286Z,25.02
2022-08-30T18:47:29.919Z,24.78
2022-08-30T18:50:05.130Z,24.58
2022-08-30T18:52:38.871Z,24.44
2022-08-30T18:55:14.032Z,24.27
2022-08-30T18:57:49.228Z,24.18
2022-08-30T19:00:22.706Z,24.10
2022-08-30T19:02:55.972Z,24.05
2022-08-30T19:05:29.831Z,24.04
2022-08-30T19:08:03.860Z,24.04
2022-08-30T19:10:38.831Z,24.06
2022-08-30T19:13:13.722Z,24.07
2022-08-30T19:15:47.228Z,23.99
2022-08-30T19:18:21.201Z,23.83
2022-08-30T19:20:54.411Z,23.61
2022-08-30T19:23:34.089Z,23.41
2022-08-30T19:26:04.129Z,23.27
2022-08-30T19:28:38.151Z,23.27
2022-08-30T19:31:11.393Z,23.35
2022-08-30T19:33:44.759Z,23.47
2022-08-30T19:36:18.075Z,23.60
2022-08-30T19:38:51.432Z,23.61
2022-08-30T19:41:25.146Z,23.54
2022-08-30T19:44:01.246Z,23.45
2022-08-30T19:46:34.477Z,23.09
2022-08-30T19:49:10.651Z,22.57
2022-08-30T19:51:46.512Z,22.37
2022-08-30T19:54:20.311Z,22.44
2022-08-30T19:56:54.645Z,22.59
2022-08-30T19:59:28.054Z,22.72
2022-08-30T20:02:23.197Z,22.82
2022-08-30T20:04:58.174Z,22.93
2022-08-30T20:07:34.526Z,22.94
2022-08-30T20:10:10.975Z,22.89
2022-08-30T20:12:47.556Z,22.76
2022-08-30T20:15:20.776Z,22.63
2022-08-30T20:18:05.192Z,22.45
2022-08-30T20:20:29.782Z,22.33
2022-08-30T20:23:03.033Z,22.17
2022-08-30T20:25:38.110Z,22.14
2022-08-30T20:28:12.081Z,22.05
2022-08-30T20:30:45.541Z,21.95
2022-08-30T20:33:23.598Z,21.89
2022-08-30T20:36:02.188Z,21.86
2022-08-30T20:38:35.810Z,21.83
2022-08-30T20:41:16.868Z,21.82
2022-08-30T20:43:50.452Z,21.79
2022-08-30T20:46:23.906Z,21.81
2022-08-30T20:48:59.865Z,21.87
2022-08-30T20:51:33.284Z,21.92
2022-08-30T20:54:09.585Z,21.88
2022-08-30T20:56:43.225Z,21.82
2022-08-30T20:59:16.584Z,21.72
2022-08-30T21:01:50.151Z,21.65
2022-08-30T21:04:23.725Z,21.64
2022-08-30T21:06:58.063Z,21.63
2022-08-30T21:09:31.684Z,21.49
2022-08-30T21:12:09.913Z,21.59
2022-08-30T21:14:42.232Z,21.51
2022-08-30T21:17:18.041Z,21.49
2022-08-30T21:19:52.777Z,21.45
2022-08-30T21:22:28.798Z,21.46
2022-08-30T21:25:02.862Z,21.47
2022-08-30T21:27:37.099Z,21.52
2022-08-30T21:30:12.803Z,21.40
2022-08-30T21:32:47.792Z,21.37
2022-08-30T21:35:40.333Z,21.35
2022-08-30T21:38:17.632Z,21.34
2022-08-30T21:40:51.283Z,21.30
2022-08-30T21:43:24.675Z,21.25
2022-08-30T21:45:58.090Z,21.18
2022-08-30T21:48:31.363Z,21.13
2022-08-30T21:51:09.259Z,21.11
2022-08-30T21:53:42.640Z,21.07
2022-08-30T21:56:21.651Z,21.04
2022-08-30T21:59:00.285Z,21.02
2022-08-30T22:01:34.470Z,21.00
2022-08-30T22:04:11.674Z,20.92
2022-08-30T22:06:50.623Z,20.88
2022-08-30T22:09:26.866Z,20.80
2022-08-30T22:12:03.358Z,20.78
2022-08-30T22:14:38.743Z,20.72
2022-08-30T22:17:12.103Z,20.67
2022-08-30T22:19:45.391Z,20.65
2022-08-30T22:22:20.216Z,20.64
2022-08-30T22:24:53.799Z,20.61
2022-08-30T22:27:28.418Z,20.49
2022-08-30T22:30:01.943Z,20.40
2022-08-30T22:32:35.204Z,20.37
2022-08-30T22:35:10.624Z,20.32
2022-08-30T22:37:47.675Z,20.25
2022-08-30T22:40:20.778Z,20.21
2022-08-30T22:42:54.267Z,20.12
2022-08-30T22:45:27.668Z,20.10
2022-08-30T22:48:01.050Z,20.07
2022-08-30T22:50:34.352Z,20.02
2022-08-30T22:53:07.788Z,20.01
2022-08-30T22:55:43.202Z,19.96
2022-08-30T22:58:18.225Z,19.91
2022-08-30T23:00:54.919Z,19.86
2022-08-30T23:03:26.697Z,19.84
2022-08-30T23:06:00.059Z,19.83
2022-08-30T23:08:33.212Z,19.80
2022-08-30T23:11:06.772Z,19.78
2022-08-30T23:13:43.783Z,19.73
2022-08-30T23:16:18.147Z,19.69
2022-08-30T23:18:51.991Z,19.64
2022-08-30T23:21:28.912Z,19.60
2022-08-30T23:24:21.491Z,19.59
2022-08-30T23:27:13.062Z,19.53
2022-08-30T23:30:04.199Z,19.47
2022-08-30T23:32:55.170Z,19.41
2022-08-30T23:35:47.153Z,19.38
2022-08-30T23:38:39.188Z,19.36
2022-08-30T23:41:33.976Z,19.33
2022-08-30T23:44:23.286Z,19.24
2022-08-30T23:47:14.424Z,19.18
2022-08-30T23:50:05.314Z,19.13
2022-08-30T23:52:56.521Z,19.10
2022-08-30T23:55:47.445Z,19.05
2022-08-30T23:58:38.386Z,19.03
